createdAt,value
2023-04-20T00:00:09.559Z,100616.72
2023-04-20T00:02:42.743Z,100617.56
2023-04-20T00:05:12.654Z,100616.59
2023-04-20T00:07:41.833Z,100606.03
2023-04-20T00:10:11.021Z,100614.63
2023-04-20T00:12:39.538Z,100611.06
2023-04-20T00:15:08.979Z,100621.44
2023-04-20T00:17:39.489Z,100613.47
2023-04-20T00:20:10.834Z,100601.19
2023-04-20T00:22:39.735Z,100598.53
2023-04-20T00:25:09.257Z,100594.06
2023-04-20T00:27:37.938Z,100596.59
2023-04-20T00:30:07.494Z,100590.50
2023-04-20T00:32:36.154Z,100577.38
2023-04-20T00:35:05.014Z,100570.38
2023-04-20T00:37:34.915Z,100564.13
2023-04-20T00:40:04.105Z,100559.66
2023-04-20T00:42:32.878Z,100558.72
2023-04-20T00:45:01.477Z,100551.66
2023-04-20T00:47:30.174Z,100539.31
2023-04-20T00:49:58.872Z,100534.91
2023-04-20T00:52:28.466Z,100540.09
2023-04-20T00:55:02.035Z,100545.19
2023-04-20T00:57:32.155Z,100544.13
2023-04-20T01:00:06.607Z,100528.38
2023-04-20T01:02:35.452Z,100529.94
2023-04-20T01:05:04.201Z,100523.78
2023-04-20T01:07:32.952Z,100527.03
2023-04-20T01:10:02.889Z,100522.66
2023-04-20T01:12:32.034Z,100526.94
2023-04-20T01:15:00.823Z,100523.34
2023-04-20T01:17:29.357Z,100523.22
2023-04-20T01:20:00.097Z,100519.66
2023-04-20T01:22:31.151Z,100517.75
2023-04-20T01:24:59.919Z,100509.78
2023-04-20T01:27:28.631Z,100502.66
2023-04-20T01:29:57.396Z,100494.66
2023-04-20T01:32:26.003Z,100500.63
2023-04-20T01:34:56.151Z,100497.06
2023-04-20T01:37:24.739Z,100504.72
2023-04-20T01:39:54.886Z,100503.72
2023-04-20T01:42:24.244Z,100495.69
2023-04-20T01:44:52.738Z,100494.69
2023-04-20T01:47:21.237Z,100492.84
2023-04-20T01:49:49.775Z,100485.78
2023-04-20T01:52:19.789Z,100485.69
2023-04-20T01:54:50.456Z,100476.03
2023-04-20T01:57:20.286Z,100468.13
2023-04-20T01:59:48.884Z,100467.19
2023-04-20T02:02:17.563Z,100465.41
2023-04-20T02:04:46.154Z,100461.03
2023-04-20T02:07:14.632Z,100446.19
2023-04-20T02:09:43.170Z,100446.06
2023-04-20T02:12:11.819Z,100439.09
2023-04-20T02:14:42.827Z,100451.16
2023-04-20T02:17:12.226Z,100446.78
2023-04-20T02:19:41.041Z,100431.94
2023-04-20T02:22:09.546Z,100431.94
2023-04-20T02:24:38.121Z,100425.84
2023-04-20T02:27:06.694Z,100421.53
2023-04-20T02:29:35.596Z,100429.34
2023-04-20T02:32:07.851Z,100431.19
2023-04-20T02:34:36.416Z,100427.78
2023-04-20T02:37:04.954Z,100426.06
2023-04-20T02:39:33.549Z,100414.81
2023-04-20T02:42:02.088Z,100421.81
2023-04-20T02:44:31.155Z,100421.81
2023-04-20T02:46:59.711Z,100410.47
2023-04-20T02:49:29.711Z,100405.25
2023-04-20T02:51:59.421Z,100402.75
2023-04-20T02:54:28.169Z,100411.44
2023-04-20T02:56:58.081Z,100406.31
2023-04-20T02:59:27.877Z,100401.97
2023-04-20T03:02:04.580Z,100400.34
2023-04-20T03:04:34.518Z,100396.00
2023-04-20T03:07:17.896Z,100394.38
2023-04-20T03:09:47.112Z,100390.91
2023-04-20T03:12:22.459Z,100392.72
2023-04-20T03:14:57.391Z,100397.97
2023-04-20T03:17:37.903Z,100388.50
2023-04-20T03:20:09.929Z,100389.41
2023-04-20T03:22:38.961Z,100389.41
2023-04-20T03:25:09.435Z,100388.59
2023-04-20T03:27:53.053Z,100379.88
2023-04-20T03:30:22.057Z,100378.97
2023-04-20T03:32:56.131Z,100374.69
2023-04-20T03:35:26.115Z,100369.50
2023-04-20T03:37:54.699Z,100366.91
2023-04-20T03:40:23.763Z,100368.69
2023-04-20T03:42:52.368Z,100362.66
2023-04-20T03:45:21.084Z,100367.94
2023-04-20T03:47:51.252Z,100363.66
2023-04-20T03:50:19.872Z,100350.63
2023-04-20T03:52:49.694Z,100353.31
2023-04-20T03:55:18.430Z,100345.50
2023-04-20T03:57:52.705Z,100347.22
2023-04-20T04:00:21.468Z,100352.41
2023-04-20T04:02:50.159Z,100346.31
2023-04-20T04:05:26.804Z,100343.72
2023-04-20T04:07:56.904Z,100345.50
2023-04-20T04:10:25.449Z,100341.13
2023-04-20T04:12:54.145Z,100341.13
2023-04-20T04:15:23.326Z,100336.78
2023-04-20T04:17:59.747Z,100334.97
2023-04-20T04:20:28.774Z,100337.59
2023-04-20T04:22:58.904Z,100332.34
2023-04-20T04:25:51.200Z,100327.88
2023-04-20T04:28:24.776Z,100335.63
2023-04-20T04:31:06.166Z,100326.84
2023-04-20T04:33:36.037Z,100332.06
2023-04-20T04:36:07.146Z,100326.72
2023-04-20T04:38:38.010Z,100319.75
2023-04-20T04:41:07.335Z,100317.97
2023-04-20T04:43:36.988Z,100324.06
2023-04-20T04:46:14.516Z,100317.97
2023-04-20T04:48:43.562Z,100321.41
2023-04-20T04:51:12.689Z,100323.13
2023-04-20T04:53:45.158Z,100327.50
2023-04-20T04:56:14.253Z,100324.91
2023-04-20T04:58:42.804Z,100328.38
2023-04-20T05:01:11.340Z,100318.81
2023-04-20T05:03:40.013Z,100329.25
2023-04-20T05:06:08.983Z,100326.72
2023-04-20T05:08:38.365Z,100324.13
2023-04-20T05:11:08.674Z,100326.72
2023-04-20T05:13:37.201Z,100329.47
2023-04-20T05:16:06.572Z,100327.78
2023-04-20T05:18:35.068Z,100325.22
2023-04-20T05:21:03.732Z,100333.97
2023-04-20T05:23:32.173Z,100335.75
2023-04-20T05:26:00.657Z,100330.53
2023-04-20T05:28:30.509Z,100332.34
2023-04-20T05:30:58.938Z,100335.91
2023-04-20T05:33:27.723Z,100333.28
2023-04-20T05:35:57.754Z,100325.47
2023-04-20T05:38:26.398Z,100325.47
2023-04-20T05:40:54.846Z,100323.78
2023-04-20T05:43:23.322Z,100329.16
2023-04-20T05:45:53.241Z,100334.38
2023-04-20T05:48:21.699Z,100333.59
2023-04-20T05:50:50.178Z,100331.91
2023-04-20T05:53:18.681Z,100335.50
2023-04-20T05:55:47.246Z,100337.28
2023-04-20T05:58:16.287Z,100335.63
2023-04-20T06:00:45.124Z,100327.84
2023-04-20T06:03:15.036Z,100324.44
2023-04-20T06:05:43.715Z,100326.22
2023-04-20T06:08:12.641Z,100327.97
2023-04-20T06:10:41.390Z,100326.31
2023-04-20T06:13:09.888Z,100322.00
2023-04-20T06:15:38.416Z,100323.72
2023-04-20T06:18:07.118Z,100321.06
2023-04-20T06:20:39.140Z,100317.53
2023-04-20T06:23:07.589Z,100324.56
2023-04-20T06:25:37.191Z,100321.88
2023-04-20T06:28:06.303Z,100321.94
2023-04-20T06:30:35.396Z,100325.50
2023-04-20T06:33:04.715Z,100319.56
2023-04-20T06:35:33.240Z,100321.59
2023-04-20T06:38:03.185Z,100327.06
2023-04-20T06:40:31.747Z,100326.44
2023-04-20T06:43:00.273Z,100322.22
2023-04-20T06:45:28.814Z,100331.00
2023-04-20T06:47:57.290Z,100328.47
2023-04-20T06:50:26.108Z,100332.84
2023-04-20T06:52:54.610Z,100331.00
2023-04-20T06:55:24.532Z,100330.06
2023-04-20T06:57:53.179Z,100329.06
2023-04-20T07:00:22.100Z,100333.22
2023-04-20T07:02:52.012Z,100330.50
2023-04-20T07:05:21.122Z,100324.31
2023-04-20T07:07:49.781Z,100327.69
2023-04-20T07:10:18.444Z,100328.47
2023-04-20T07:12:50.637Z,100331.81
2023-04-20T07:15:19.029Z,100335.09
2023-04-20T07:17:47.527Z,100330.56
2023-04-20T07:20:16.022Z,100327.84
2023-04-20T07:22:44.541Z,100331.31
2023-04-20T07:25:12.971Z,100318.28
2023-04-20T07:27:42.247Z,100321.75
2023-04-20T07:30:12.622Z,100322.66
2023-04-20T07:32:42.298Z,100320.03
2023-04-20T07:35:11.500Z,100322.66
2023-04-20T07:37:40.776Z,100325.25
2023-04-20T07:40:10.682Z,100323.50
2023-04-20T07:42:39.322Z,100324.38
2023-04-20T07:45:08.913Z,100326.09
2023-04-20T07:47:39.327Z,100333.06
2023-04-20T07:50:11.284Z,100334.88
2023-04-20T07:52:39.758Z,100332.25
2023-04-20T07:55:14.067Z,100333.91
2023-04-20T07:57:42.629Z,100330.34
2023-04-20T08:00:12.938Z,100324.25
2023-04-20T08:02:43.034Z,100333.03
2023-04-20T08:05:11.840Z,100329.59
2023-04-20T08:07:40.895Z,100322.66
2023-04-20T08:10:10.562Z,100322.72
2023-04-20T08:12:39.741Z,100317.53
2023-04-20T08:15:10.040Z,100309.78
2023-04-20T08:17:38.442Z,100309.72
2023-04-20T08:20:10.693Z,100304.66
2023-04-20T08:22:39.973Z,100310.78
2023-04-20T08:25:09.056Z,100310.78
2023-04-20T08:27:37.453Z,100303.81
2023-04-20T08:30:07.890Z,100302.06
2023-04-20T08:32:36.311Z,100292.38
2023-04-20T08:35:05.529Z,100295.81
2023-04-20T08:37:35.385Z,100296.69
2023-04-20T08:40:05.696Z,100293.19
2023-04-20T08:42:34.318Z,100294.09
2023-04-20T08:45:02.855Z,100293.28
2023-04-20T08:47:32.449Z,100287.97
2023-04-20T08:50:01.847Z,100288.09
2023-04-20T08:52:30.327Z,100288.16
2023-04-20T08:55:00.287Z,100291.66
2023-04-20T08:57:28.769Z,100293.50
2023-04-20T08:59:58.507Z,100301.41
2023-04-20T09:02:27.090Z,100300.50
2023-04-20T09:05:05.742Z,100305.75
2023-04-20T09:07:34.342Z,100300.50
2023-04-20T09:10:04.634Z,100302.16
2023-04-20T09:12:42.438Z,100308.16
2023-04-20T09:15:11.874Z,100313.19
2023-04-20T09:17:41.480Z,100307.78
2023-04-20T09:20:11.395Z,100299.75
2023-04-20T09:22:40.166Z,100292.78
2023-04-20T09:25:16.669Z,100300.72
2023-04-20T09:27:45.051Z,100298.38
2023-04-20T09:30:14.222Z,100297.84
2023-04-20T09:32:42.774Z,100300.81
2023-04-20T09:35:11.346Z,100299.31
2023-04-20T09:37:48.517Z,100292.72
2023-04-20T09:40:21.915Z,100288.75
2023-04-20T09:42:51.949Z,100283.84
2023-04-20T09:45:20.631Z,100288.53
2023-04-20T09:47:50.459Z,100285.34
2023-04-20T09:50:26.644Z,100282.13
2023-04-20T09:52:58.263Z,100278.88
2023-04-20T09:55:28.681Z,100280.09
2023-04-20T09:57:58.909Z,100263.78
2023-04-20T10:00:27.357Z,100275.38
2023-04-20T10:02:56.110Z,100267.81
2023-04-20T10:05:34.193Z,100260.28
2023-04-20T10:08:02.830Z,100259.78
2023-04-20T10:10:43.721Z,100260.97
2023-04-20T10:13:12.356Z,100251.56
2023-04-20T10:15:42.354Z,100256.03
2023-04-20T10:18:18.756Z,100247.38
2023-04-20T10:20:47.834Z,100252.59
2023-04-20T10:23:18.613Z,100250.84
2023-04-20T10:25:59.357Z,100254.41
2023-04-20T10:28:39.748Z,100250.06
2023-04-20T10:31:13.042Z,100256.16
2023-04-20T10:33:52.375Z,100256.16
2023-04-20T10:36:28.998Z,100249.97
2023-04-20T10:38:57.780Z,100249.97
2023-04-20T10:41:28.010Z,100244.00
2023-04-20T10:43:56.526Z,100229.47
2023-04-20T10:46:26.219Z,100234.97
2023-04-20T10:48:56.011Z,100230.88
2023-04-20T10:51:24.947Z,100232.00
2023-04-20T10:54:04.952Z,100227.88
2023-04-20T10:56:43.063Z,100228.91
2023-04-20T10:59:13.389Z,100230.78
2023-04-20T11:01:42.707Z,100215.19
2023-04-20T11:04:12.207Z,100225.88
2023-04-20T11:06:41.950Z,100226.84
2023-04-20T11:09:21.145Z,100222.59
2023-04-20T11:12:02.029Z,100221.84
2023-04-20T11:14:31.126Z,100221.13
2023-04-20T11:16:59.848Z,100214.34
2023-04-20T11:19:29.512Z,100211.81
2023-04-20T11:21:58.199Z,100220.59
2023-04-20T11:24:28.796Z,100212.75
2023-04-20T11:26:58.072Z,100209.25
2023-04-20T11:29:33.148Z,100203.94
2023-04-20T11:32:04.049Z,100201.25
2023-04-20T11:34:33.405Z,100200.41
2023-04-20T11:37:05.338Z,100200.59
2023-04-20T11:39:33.887Z,100197.31
2023-04-20T11:42:02.561Z,100195.78
2023-04-20T11:44:32.909Z,100194.31
2023-04-20T11:47:01.822Z,100199.00
2023-04-20T11:49:30.865Z,100189.63
2023-04-20T11:51:59.402Z,100179.47
2023-04-20T11:54:29.814Z,100194.53
2023-04-20T11:56:59.049Z,100187.75
2023-04-20T11:59:27.616Z,100189.84
2023-04-20T12:01:57.617Z,100191.03
2023-04-20T12:04:26.409Z,100192.31
2023-04-20T12:06:55.113Z,100196.19
2023-04-20T12:09:23.585Z,100197.31
2023-04-20T12:11:52.262Z,100194.06
2023-04-20T12:14:21.022Z,100188.06
2023-04-20T12:16:49.915Z,100197.84
2023-04-20T12:19:21.249Z,100198.00
2023-04-20T12:21:49.876Z,100202.56
2023-04-20T12:24:18.697Z,100193.88
2023-04-20T12:26:47.169Z,100189.50
2023-04-20T12:29:16.602Z,100186.88
2023-04-20T12:31:45.689Z,100187.59
2023-04-20T12:34:14.144Z,100178.81
2023-04-20T12:36:43.916Z,100191.16
2023-04-20T12:39:12.333Z,100185.94
2023-04-20T12:41:42.375Z,100188.72
2023-04-20T12:44:13.200Z,100190.63
2023-04-20T12:46:42.332Z,100200.44
2023-04-20T12:49:11.007Z,100196.16
2023-04-20T12:51:39.585Z,100190.09
2023-04-20T12:54:09.635Z,100191.88
2023-04-20T12:56:38.417Z,100188.44
2023-04-20T12:59:06.908Z,100187.66
2023-04-20T13:01:36.832Z,100199.09
2023-04-20T13:04:07.032Z,100186.88
2023-04-20T13:06:35.698Z,100185.06
2023-04-20T13:09:04.591Z,100185.06
2023-04-20T13:11:34.508Z,100188.53
2023-04-20T13:14:02.906Z,100184.09
2023-04-20T13:16:31.501Z,100185.75
2023-04-20T13:19:01.541Z,100191.84
2023-04-20T13:21:29.939Z,100193.59
2023-04-20T13:23:59.842Z,100191.84
2023-04-20T13:26:28.482Z,100182.22
2023-04-20T13:28:58.496Z,100182.22
2023-04-20T13:31:27.075Z,100177.00
2023-04-20T13:33:56.143Z,100178.75
2023-04-20T13:36:25.692Z,100170.13
2023-04-20T13:38:55.720Z,100178.16
2023-04-20T13:41:24.651Z,100173.97
2023-04-20T13:43:53.206Z,100168.03
2023-04-20T13:46:23.175Z,100166.63
2023-04-20T13:48:52.050Z,100161.75
2023-04-20T13:51:21.799Z,100158.75
2023-04-20T13:53:50.822Z,100155.56
2023-04-20T13:56:19.928Z,100158.34
2023-04-20T13:58:48.500Z,100157.47
2023-04-20T14:01:17.375Z,100146.03
2023-04-20T14:03:47.339Z,100147.91
2023-04-20T14:06:15.924Z,100142.72
2023-04-20T14:08:44.594Z,100132.19
2023-04-20T14:11:13.010Z,100139.19
2023-04-20T14:13:42.075Z,100137.56
2023-04-20T14:16:11.392Z,100145.66
2023-04-20T14:18:39.890Z,100144.09
2023-04-20T14:21:09.924Z,100138.94
2023-04-20T14:23:38.562Z,100141.75
2023-04-20T14:26:07.370Z,100134.91
2023-04-20T14:28:35.939Z,100135.81
2023-04-20T14:31:04.510Z,100141.00
2023-04-20T14:33:33.110Z,100156.69
2023-04-20T14:36:01.523Z,100143.47
2023-04-20T14:38:31.326Z,100151.44
2023-04-20T14:41:00.669Z,100144.47
2023-04-20T14:43:29.056Z,100134.03
2023-04-20T14:45:58.705Z,100127.97
2023-04-20T14:48:29.766Z,100129.03
2023-04-20T14:50:58.703Z,100132.66
2023-04-20T14:53:27.148Z,100134.41
2023-04-20T14:55:57.241Z,100137.03
2023-04-20T14:58:25.702Z,100130.81
2023-04-20T15:00:54.217Z,100138.69
2023-04-20T15:03:23.153Z,100134.13
2023-04-20T15:05:51.989Z,100130.66
2023-04-20T15:08:20.900Z,100130.72
2023-04-20T15:10:56.320Z,100123.75
2023-04-20T15:13:26.804Z,100115.91
2023-04-20T15:15:55.545Z,100125.56
2023-04-20T15:18:24.633Z,100116.75
2023-04-20T15:20:53.527Z,100116.63
2023-04-20T15:23:23.070Z,100117.34
2023-04-20T15:25:51.712Z,100119.91
2023-04-20T15:28:20.221Z,100115.41
2023-04-20T15:30:50.035Z,100110.19
2023-04-20T15:33:18.492Z,100103.25
2023-04-20T15:35:47.028Z,100095.53
2023-04-20T15:38:15.451Z,100103.56
2023-04-20T15:40:43.892Z,100101.03
2023-04-20T15:43:12.455Z,100092.28
2023-04-20T15:45:43.381Z,100086.19
2023-04-20T15:48:15.710Z,100092.44
2023-04-20T15:50:44.156Z,100086.25
2023-04-20T15:53:12.507Z,100084.47
2023-04-20T15:55:41.065Z,100084.47
2023-04-20T15:58:10.751Z,100088.88
2023-04-20T16:00:42.050Z,100088.88
2023-04-20T16:03:10.635Z,100092.34
2023-04-20T16:05:41.112Z,100089.72
2023-04-20T16:08:09.772Z,100085.31
2023-04-20T16:10:38.216Z,100097.63
2023-04-20T16:13:06.631Z,100090.56
2023-04-20T16:15:35.304Z,100086.97
2023-04-20T16:18:05.393Z,100090.50
2023-04-20T16:20:33.999Z,100098.41
2023-04-20T16:23:04.055Z,100093.97
2023-04-20T16:25:34.256Z,100093.09
2023-04-20T16:28:02.946Z,100090.44
2023-04-20T16:30:33.083Z,100094.84
2023-04-20T16:33:02.310Z,100083.34
2023-04-20T16:35:32.239Z,100081.59
2023-04-20T16:38:01.124Z,100086.94
2023-04-20T16:40:31.006Z,100090.53
2023-04-20T16:43:01.762Z,100093.22
2023-04-20T16:45:30.371Z,100095.88
2023-04-20T16:47:58.922Z,100094.13
2023-04-20T16:50:32.578Z,100097.69
2023-04-20T16:53:01.249Z,100094.16
2023-04-20T16:55:31.978Z,100099.47
2023-04-20T16:58:00.841Z,100103.88
2023-04-20T17:00:30.172Z,100106.53
2023-04-20T17:03:01.256Z,100100.34
2023-04-20T17:05:30.151Z,100098.59
2023-04-20T17:07:58.989Z,100094.19
2023-04-20T17:10:27.553Z,100100.28
2023-04-20T17:12:59.895Z,100092.28
2023-04-20T17:15:28.571Z,100092.19
2023-04-20T17:17:57.258Z,100095.69
2023-04-20T17:20:25.954Z,100098.25
2023-04-20T17:22:54.449Z,100103.47
2023-04-20T17:25:23.136Z,100109.47
2023-04-20T17:27:51.662Z,100118.19
2023-04-20T17:30:21.512Z,100121.56
2023-04-20T17:32:50.042Z,100125.81
2023-04-20T17:35:18.577Z,100117.72
2023-04-20T17:37:47.189Z,100136.03
2023-04-20T17:40:15.816Z,100146.44
2023-04-20T17:42:44.232Z,100160.28
2023-04-20T17:45:13.144Z,100159.19
2023-04-20T17:47:43.213Z,100164.25
2023-04-20T17:50:13.538Z,100169.31
2023-04-20T17:52:42.199Z,100177.00
2023-04-20T17:55:10.953Z,100175.84
2023-04-20T17:57:40.513Z,100170.34
2023-04-20T18:00:16.881Z,100178.00
2023-04-20T18:02:47.365Z,100194.44
2023-04-20T18:05:17.079Z,100185.44
2023-04-20T18:07:45.774Z,100196.50
2023-04-20T18:10:15.709Z,100179.59
2023-04-20T18:12:44.977Z,100182.84
2023-04-20T18:15:13.886Z,100189.66
2023-04-20T18:17:44.433Z,100193.00
2023-04-20T18:20:14.554Z,100193.72
2023-04-20T18:22:43.392Z,100211.16
2023-04-20T18:25:12.229Z,100197.03
2023-04-20T18:27:40.872Z,100194.22
2023-04-20T18:30:10.597Z,100190.53
2023-04-20T18:32:40.479Z,100200.84
2023-04-20T18:35:10.534Z,100205.06
2023-04-20T18:37:40.551Z,100198.81
2023-04-20T18:40:10.353Z,100198.66
2023-04-20T18:42:39.066Z,100199.38
2023-04-20T18:45:08.842Z,100196.56
2023-04-20T18:47:37.573Z,100190.31
2023-04-20T18:50:07.256Z,100198.06
2023-04-20T18:52:36.219Z,100202.28
2023-04-20T18:55:07.102Z,100188.16
2023-04-20T18:57:35.915Z,100188.91
2023-04-20T19:00:08.372Z,100182.69
2023-04-20T19:02:37.927Z,100180.78
2023-04-20T19:05:07.829Z,100173.69
2023-04-20T19:07:36.409Z,100171.84
2023-04-20T19:10:08.080Z,100174.31
2023-04-20T19:12:39.145Z,100179.44
2023-04-20T19:15:09.835Z,100175.84
2023-04-20T19:17:38.752Z,100165.28
2023-04-20T19:20:08.918Z,100177.44
2023-04-20T19:22:37.581Z,100169.44
2023-04-20T19:25:08.908Z,100174.63
2023-04-20T19:27:38.374Z,100174.56
2023-04-20T19:30:08.746Z,100166.63
2023-04-20T19:32:37.561Z,100165.69
2023-04-20T19:35:06.845Z,100157.78
2023-04-20T19:37:35.716Z,100160.34
2023-04-20T19:40:05.699Z,100159.38
2023-04-20T19:42:35.773Z,100155.84
2023-04-20T19:45:04.645Z,100162.75
2023-04-20T19:47:33.456Z,100151.34
2023-04-20T19:50:03.887Z,100151.28
2023-04-20T19:52:34.403Z,100146.91
2023-04-20T19:55:04.156Z,100141.56
2023-04-20T19:57:36.211Z,100143.22
2023-04-20T20:00:08.573Z,100137.91
2023-04-20T20:02:41.673Z,100140.41
2023-04-20T20:05:11.179Z,100136.91
2023-04-20T20:07:40.292Z,100135.91
2023-04-20T20:10:09.394Z,100135.88
2023-04-20T20:12:39.719Z,100121.00
2023-04-20T20:15:09.153Z,100126.13
2023-04-20T20:17:37.803Z,100117.31
2023-04-20T20:20:09.828Z,100110.28
2023-04-20T20:22:38.973Z,100112.00
2023-04-20T20:25:09.029Z,100119.78
2023-04-20T20:27:39.172Z,100112.81
2023-04-20T20:30:09.452Z,100108.38
2023-04-20T20:32:38.499Z,100111.88
2023-04-20T20:35:09.477Z,100104.00
2023-04-20T20:37:38.918Z,100107.47
2023-04-20T20:40:12.326Z,100116.09
2023-04-20T20:42:45.085Z,100131.78
2023-04-20T20:45:14.388Z,100144.72
2023-04-20T20:47:44.530Z,100144.63
2023-04-20T20:50:16.085Z,100157.63
2023-04-20T20:52:44.987Z,100161.94
2023-04-20T20:55:13.988Z,100167.97
2023-04-20T20:57:44.452Z,100167.00
2023-04-20T21:00:14.083Z,100171.28
2023-04-20T21:02:43.233Z,100168.53
2023-04-20T21:05:12.222Z,100155.31
2023-04-20T21:07:41.269Z,100156.13
2023-04-20T21:10:11.798Z,100157.75
2023-04-20T21:12:40.484Z,100158.50
2023-04-20T21:15:12.415Z,100161.03
2023-04-20T21:17:41.126Z,100156.53
2023-04-20T21:20:10.817Z,100156.44
2023-04-20T21:22:39.829Z,100144.91
2023-04-20T21:25:09.172Z,100155.34
2023-04-20T21:27:37.807Z,100153.50
2023-04-20T21:30:07.144Z,100157.88
2023-04-20T21:32:37.239Z,100149.09
2023-04-20T21:35:06.429Z,100148.19
2023-04-20T21:37:34.992Z,100155.91
2023-04-20T21:40:03.850Z,100155.03
2023-04-20T21:42:32.390Z,100150.66
2023-04-20T21:45:00.884Z,100145.31
2023-04-20T21:47:29.598Z,100143.56
2023-04-20T21:49:59.632Z,100140.88
2023-04-20T21:52:28.222Z,100139.91
2023-04-20T21:54:56.710Z,100138.16
2023-04-20T21:57:25.345Z,100128.50
2023-04-20T21:59:53.956Z,100126.69
2023-04-20T22:02:22.521Z,100115.31
2023-04-20T22:04:51.196Z,100114.34
2023-04-20T22:07:21.284Z,100115.16
2023-04-20T22:09:49.896Z,100107.31
2023-04-20T22:12:23.498Z,100109.06
2023-04-20T22:14:57.527Z,100097.72
2023-04-20T22:17:28.992Z,100092.50
2023-04-20T22:19:57.996Z,100085.53
2023-04-20T22:22:27.852Z,100081.19
2023-04-20T22:24:56.361Z,100092.50
2023-04-20T22:27:25.072Z,100092.50
2023-04-20T22:29:53.596Z,100084.59
2023-04-20T22:32:22.178Z,100090.63
2023-04-20T22:34:50.878Z,100082.75
2023-04-20T22:37:20.693Z,100080.06
2023-04-20T22:39:50.532Z,100077.38
2023-04-20T22:42:19.878Z,100073.00
2023-04-20T22:44:48.675Z,100068.59
2023-04-20T22:47:17.185Z,100060.69
2023-04-20T22:49:45.675Z,100056.25
2023-04-20T22:52:14.165Z,100055.38
2023-04-20T22:54:47.859Z,100052.69
2023-04-20T22:57:19.201Z,100053.56
2023-04-20T22:59:48.791Z,100062.22
2023-04-20T23:02:17.441Z,100066.56
2023-04-20T23:04:45.985Z,100066.56
2023-04-20T23:07:14.486Z,100063.06
2023-04-20T23:09:44.060Z,100053.50
2023-04-20T23:12:12.529Z,100056.16
2023-04-20T23:14:43.826Z,100053.50
2023-04-20T23:17:12.490Z,100053.44
2023-04-20T23:19:41.130Z,100055.13
2023-04-20T23:22:09.830Z,100047.25
2023-04-20T23:24:38.427Z,100049.84
2023-04-20T23:27:09.340Z,100053.31
2023-04-20T23:29:38.045Z,100048.09
2023-04-20T23:32:08.139Z,100038.47
2023-04-20T23:34:36.868Z,100040.19
2023-04-20T23:37:05.488Z,100034.09
2023-04-20T23:39:37.541Z,100020.09
2023-04-20T23:42:06.429Z,100018.34
2023-04-20T23:44:35.023Z,100018.28
2023-04-20T23:47:03.586Z,100009.56
2023-04-20T23:49:33.752Z,100013.00
2023-04-20T23:52:02.281Z,100012.13
2023-04-20T23:54:33.061Z,100012.97
2023-04-20T23:57:02.733Z,100014.69
2023-04-20T23:59:31.300Z,100014.69
